Time;durP1;ratioP1;P1;durP2;ratioP2;P2;SDS_P1;SDS_P2;PMS_P1;PMS_P2;Temp;Humidity;BMP_temperature;BMP_pressure;BME280_temperature;BME280_humidity;BME280_pressure;Samples;Min_cycle;Max_cycle;Signal;HPM_P1;HPM_P2
2022/11/21 00:01:33;;;;;;;47.75;25.52;;;;;;;8.94;58.59;100677.06;5069425;28;20039;-77
2022/11/21 00:03:58;;;;;;;50.17;27.02;;;;;;;9.07;58.47;100685.00;5070639;28;20036;-76
2022/11/21 00:06:24;;;;;;;50.92;26.92;;;;;;;9.13;57.91;100682.25;5069736;28;20021;-76
2022/11/21 00:08:50;;;;;;;43.42;25.48;;;;;;;9.08;57.75;100681.28;5068533;28;20025;-76
2022/11/21 00:11:16;;;;;;;49.65;26.80;;;;;;;9.13;58.15;100690.31;5068918;28;20025;-75
2022/11/21 00:13:41;;;;;;;54.40;27.05;;;;;;;9.12;57.98;100693.22;5052808;28;20137;-77
2022/11/21 00:16:10;;;;;;;46.53;26.08;;;;;;;9.06;58.37;100688.72;5051628;28;20033;-76
2022/11/21 00:18:36;;;;;;;51.20;26.70;;;;;;;8.92;59.16;100679.97;5066665;28;20047;-77
2022/11/21 00:21:10;;;;;;;47.42;27.13;;;;;;;9.13;58.39;100671.53;5071892;28;20032;-76
2022/11/21 00:23:36;;;;;;;49.97;27.83;;;;;;;9.03;58.66;100656.97;5071586;28;20051;-76
2022/11/21 00:26:06;;;;;;;45.10;26.58;;;;;;;9.19;57.73;100657.25;5071148;28;20037;-76
2022/11/21 00:28:31;;;;;;;48.67;25.88;;;;;;;8.84;58.82;100658.81;5071095;28;20067;-76
2022/11/21 00:30:56;;;;;;;46.95;24.85;;;;;;;9.14;58.38;100659.75;5070924;28;20025;-76
2022/11/21 00:33:22;;;;;;;46.55;25.98;;;;;;;9.08;58.09;100665.19;5070524;28;20029;-76
2022/11/21 00:35:48;;;;;;;47.67;26.15;;;;;;;9.21;57.93;100657.03;5070739;28;20066;-74
2022/11/21 00:38:14;;;;;;;46.17;24.88;;;;;;;8.98;59.08;100668.38;5069398;28;20039;-76
2022/11/21 00:40:42;;;;;;;47.28;26.10;;;;;;;9.09;58.13;100664.16;5071455;28;20079;-76
2022/11/21 00:43:07;;;;;;;48.50;25.38;;;;;;;9.19;57.88;100656.44;5070732;28;20085;-75
2022/11/21 00:45:32;;;;;;;51.60;25.10;;;;;;;9.04;58.58;100655.97;5071526;28;20560;-76
2022/11/21 00:47:58;;;;;;;42.85;25.25;;;;;;;9.19;57.79;100661.78;5071130;28;20087;-75
2022/11/21 00:50:23;;;;;;;44.63;25.58;;;;;;;9.01;58.92;100677.81;5071947;28;20102;-75
2022/11/21 00:52:53;;;;;;;47.33;25.13;;;;;;;8.52;59.79;100686.63;5070605;28;20535;-75
2022/11/21 00:55:18;;;;;;;50.28;26.92;;;;;;;8.97;58.95;100695.38;5071144;28;20042;-75
2022/11/21 00:57:43;;;;;;;42.72;25.05;;;;;;;8.91;58.86;100697.06;5071340;28;20040;-75
2022/11/21 01:00:09;;;;;;;50.00;26.38;;;;;;;8.74;58.83;100690.59;5069689;28;20112;-75
2022/11/21 01:02:34;;;;;;;46.65;26.85;;;;;;;8.84;59.23;100699.00;5071219;28;20028;-75
2022/11/21 01:05:01;;;;;;;50.63;27.92;;;;;;;9.10;58.32;100690.72;5070549;28;20032;-74
2022/11/21 01:07:26;;;;;;;50.92;26.63;;;;;;;9.08;58.23;100687.44;5070097;28;20040;-75
2022/11/21 01:09:52;;;;;;;47.50;26.60;;;;;;;8.88;58.76;100706.34;5069866;28;20037;-75
2022/11/21 01:12:17;;;;;;;48.75;27.38;;;;;;;9.01;59.06;100705.44;5070376;28;20041;-74
2022/11/21 01:14:42;;;;;;;52.72;27.48;;;;;;;9.15;58.26;100701.63;5071478;28;20028;-75
2022/11/21 01:17:08;;;;;;;51.50;27.65;;;;;;;9.07;59.18;100699.22;5070930;28;20123;-73
2022/11/21 01:19:33;;;;;;;47.95;25.30;;;;;;;8.90;59.03;100699.97;5069403;28;20531;-74
2022/11/21 01:21:59;;;;;;;52.03;27.67;;;;;;;9.09;58.80;100690.94;5071145;28;20429;-75
2022/11/21 01:24:25;;;;;;;54.88;27.60;;;;;;;9.05;58.37;100695.09;5070547;28;20127;-73
2022/11/21 01:26:52;;;;;;;54.15;26.63;;;;;;;9.00;58.78;100690.44;5069256;28;20071;-75
2022/11/21 01:29:17;;;;;;;56.92;28.98;;;;;;;9.11;58.32;100691.56;5071161;28;20055;-73
2022/11/21 01:31:43;;;;;;;56.38;28.52;;;;;;;9.02;58.50;100696.34;5070343;28;20560;-73
2022/11/21 01:34:08;;;;;;;57.15;29.55;;;;;;;8.95;58.70;100709.00;5070240;28;20543;-74
2022/11/21 01:36:34;;;;;;;51.75;27.58;;;;;;;8.93;58.93;100710.25;5068586;28;20052;-75
2022/11/21 01:39:02;;;;;;;58.35;28.20;;;;;;;9.11;58.29;100691.56;5070345;28;20032;-73
2022/11/21 01:41:32;;;;;;;54.28;28.80;;;;;;;9.13;58.34;100692.16;5070959;28;20036;-73
2022/11/21 01:43:58;;;;;;;51.60;27.80;;;;;;;9.24;57.72;100681.53;5070448;28;20058;-74
2022/11/21 01:46:25;;;;;;;53.67;28.67;;;;;;;9.08;57.52;100682.06;5070317;28;20392;-74
2022/11/21 01:49:08;;;;;;;54.45;29.13;;;;;;;9.21;57.36;100686.53;5070153;28;20523;-74
2022/11/21 01:51:47;;;;;;;49.03;26.48;;;;;;;9.04;58.61;100685.44;5070398;28;20033;-73
2022/11/21 01:54:28;;;;;;;56.58;29.80;;;;;;;9.24;57.80;100689.56;5070020;28;20036;-74
2022/11/21 01:57:11;;;;;;;50.65;28.95;;;;;;;9.16;57.92;100681.81;5068686;28;20385;-74
2022/11/21 02:00:06;;;;;;;54.00;28.92;;;;;;;9.18;58.01;100684.28;5071240;28;20061;-74
2022/11/21 02:02:42;;;;;;;52.42;27.38;;;;;;;9.14;57.91;100683.09;5047744;28;20119;-73
2022/11/21 02:05:14;;;;;;;54.13;28.65;;;;;;;9.08;58.72;100686.66;5049543;28;20037;-74
2022/11/21 02:07:43;;;;;;;58.22;28.63;;;;;;;9.30;57.42;100677.97;5051113;28;20040;-74
2022/11/21 02:10:09;;;;;;;51.05;28.45;;;;;;;9.03;59.33;100667.69;5050875;28;20041;-73
2022/11/21 02:12:53;;;;;;;47.97;27.80;;;;;;;9.18;57.85;100670.88;5051057;28;20152;-74
2022/11/21 02:15:21;;;;;;;48.25;26.02;;;;;;;9.28;57.92;100672.00;5050980;28;20405;-74
2022/11/21 02:17:47;;;;;;;52.53;28.48;;;;;;;9.26;57.28;100665.22;5051052;28;20052;-73
2022/11/21 02:20:15;;;;;;;52.90;30.90;;;;;;;9.29;57.70;100659.44;5051080;28;20040;-73
2022/11/21 02:22:40;;;;;;;56.55;29.50;;;;;;;9.08;58.23;100660.63;5050249;28;20045;-74
2022/11/21 02:25:10;;;;;;;48.67;28.15;;;;;;;9.13;58.18;100660.00;5050378;28;20406;-73
2022/11/21 02:27:36;;;;;;;51.25;28.60;;;;;;;9.14;57.86;100667.81;5050847;28;20045;-74
2022/11/21 02:30:04;;;;;;;51.58;28.48;;;;;;;9.24;57.47;100668.13;5051087;28;20339;-73
2022/11/21 02:32:38;;;;;;;49.55;26.35;;;;;;;9.28;57.59;100661.28;5051254;28;20119;-73
2022/11/21 02:35:04;;;;;;;52.35;28.17;;;;;;;9.16;57.46;100665.72;5050523;28;20401;-75
2022/11/21 02:37:31;;;;;;;51.40;27.58;;;;;;;8.98;58.11;100668.38;5050752;28;20037;-74
2022/11/21 02:40:00;;;;;;;50.72;26.92;;;;;;;8.86;58.50;100673.59;5066891;28;20036;-73
2022/11/21 02:42:33;;;;;;;57.53;28.00;;;;;;;8.85;57.84;100680.00;5071695;28;20085;-74
2022/11/21 02:45:20;;;;;;;46.38;26.27;;;;;;;8.84;57.82;100677.56;5072798;28;20048;-73
2022/11/21 02:47:49;;;;;;;49.83;26.60;;;;;;;8.78;57.90;100676.56;5053167;28;20024;-72
2022/11/21 02:50:19;;;;;;;46.50;26.42;;;;;;;8.69;57.72;100669.81;5053315;28;20552;-73
2022/11/21 02:52:45;;;;;;;51.97;28.15;;;;;;;8.25;59.01;100663.72;5051083;28;20136;-74
2022/11/21 02:55:12;;;;;;;51.85;28.17;;;;;;;8.55;58.63;100664.78;5053028;28;20044;-74
2022/11/21 02:57:38;;;;;;;55.25;28.90;;;;;;;8.44;58.46;100660.94;5052839;28;20062;-75
2022/11/21 03:00:04;;;;;;;56.58;29.27;;;;;;;8.36;58.20;100666.53;5053017;28;20041;-74
2022/11/21 03:02:30;;;;;;;48.00;27.08;;;;;;;8.20;59.00;100658.97;5052972;28;20507;-74
2022/11/21 03:04:56;;;;;;;51.58;28.23;;;;;;;8.32;58.36;100659.16;5052817;28;20041;-74
2022/11/21 03:07:21;;;;;;;50.00;28.42;;;;;;;8.02;59.99;100654.31;5052958;28;20045;-75
2022/11/21 03:09:46;;;;;;;47.20;27.20;;;;;;;8.08;59.34;100652.66;5052633;28;20041;-73
2022/11/21 03:12:12;;;;;;;52.30;27.88;;;;;;;8.05;58.87;100660.28;5051263;28;20048;-74
2022/11/21 03:14:37;;;;;;;46.25;26.52;;;;;;;8.13;58.55;100662.72;5053259;28;20460;-73
2022/11/21 03:17:03;;;;;;;50.95;27.58;;;;;;;8.13;58.37;100670.75;5065113;28;20286;-75
2022/11/21 03:19:29;;;;;;;57.85;28.90;;;;;;;8.05;59.10;100669.16;5072693;28;20389;-74
2022/11/21 03:21:54;;;;;;;51.72;29.48;;;;;;;8.12;58.92;100677.16;5071033;28;20040;-74
2022/11/21 03:24:20;;;;;;;51.28;27.92;;;;;;;8.08;58.68;100668.69;5060246;28;20048;-72
2022/11/21 03:26:45;;;;;;;49.45;27.48;;;;;;;8.08;58.64;100666.03;5053034;28;20505;-71
2022/11/21 03:29:10;;;;;;;50.45;27.92;;;;;;;8.08;58.46;100654.53;5072822;28;20404;-73
2022/11/21 03:31:36;;;;;;;47.97;25.67;;;;;;;8.00;58.62;100651.03;5072882;28;20036;-73
2022/11/21 03:34:01;;;;;;;50.35;27.45;;;;;;;7.95;59.76;100656.22;5072210;28;20037;-73
2022/11/21 03:36:26;;;;;;;46.65;27.50;;;;;;;8.14;58.77;100659.81;5072258;28;20111;-74
2022/11/21 03:38:55;;;;;;;47.35;27.05;;;;;;;8.16;59.05;100659.59;5072374;28;20115;-74
2022/11/21 03:41:29;;;;;;;57.08;30.63;;;;;;;8.21;58.93;100657.13;5072371;28;20280;-74
2022/11/21 03:44:03;;;;;;;52.55;29.08;;;;;;;8.18;59.73;100652.19;5070785;28;20116;-73
2022/11/21 03:46:31;;;;;;;59.40;30.55;;;;;;;8.14;59.70;100648.31;5072310;28;20036;-74
2022/11/21 03:48:56;;;;;;;54.70;29.83;;;;;;;8.53;58.89;100646.22;5071122;28;20051;-73
2022/11/21 03:51:22;;;;;;;60.00;29.98;;;;;;;8.20;59.27;100645.59;5071872;28;20040;-72
2022/11/21 03:53:48;;;;;;;56.10;30.42;;;;;;;8.35;59.12;100642.66;5072157;28;20055;-74
2022/11/21 03:56:14;;;;;;;59.78;30.00;;;;;;;8.25;59.68;100643.13;5072395;28;20077;-74
2022/11/21 03:58:40;;;;;;;61.28;32.78;;;;;;;8.35;59.20;100635.47;5071898;28;20522;-74
2022/11/21 04:01:05;;;;;;;54.75;31.05;;;;;;;8.34;59.30;100633.81;5072210;28;20043;-73
2022/11/21 04:03:31;;;;;;;59.75;30.60;;;;;;;8.11;60.32;100624.66;5072535;28;20075;-73
2022/11/21 04:05:56;;;;;;;57.53;28.15;;;;;;;8.34;59.17;100624.94;5072495;28;20107;-74
2022/11/21 04:08:22;;;;;;;60.53;30.15;;;;;;;8.27;59.24;100629.53;5071899;28;20028;-73
2022/11/21 04:10:48;;;;;;;57.70;31.95;;;;;;;8.27;59.41;100619.66;5071901;28;20041;-74
2022/11/21 04:13:14;;;;;;;63.50;32.13;;;;;;;7.97;60.14;100616.69;5071737;28;20131;-73
2022/11/21 04:15:44;;;;;;;97.63;33.50;;;;;;;7.85;61.09;100609.53;5071495;28;20119;-73
2022/11/21 04:18:09;;;;;;;63.58;31.58;;;;;;;7.97;60.46;100592.63;5071513;28;20085;-74
2022/11/21 04:20:35;;;;;;;169.68;31.23;;;;;;;7.78;61.06;100588.16;5060110;28;20124;-74
2022/11/21 04:23:00;;;;;;;202.70;32.72;;;;;;;7.87;60.25;100586.09;5052321;28;20047;-74
2022/11/21 04:25:26;;;;;;;260.77;32.90;;;;;;;7.82;61.04;100602.75;5071421;28;20127;-75
2022/11/21 04:27:55;;;;;;;224.15;31.17;;;;;;;8.04;60.07;100616.66;5069286;28;20044;-74
2022/11/21 04:30:21;;;;;;;174.15;30.65;;;;;;;7.81;60.93;100617.19;5071560;28;20040;-74
2022/11/21 04:32:48;;;;;;;140.65;30.50;;;;;;;8.15;59.81;100612.47;5071219;28;20031;-74
2022/11/21 04:35:13;;;;;;;200.23;32.42;;;;;;;8.13;59.66;100628.75;5071805;28;20054;-73
2022/11/21 04:37:39;;;;;;;126.60;26.60;;;;;;;8.02;59.45;100629.41;5071436;28;20040;-74
2022/11/21 04:40:05;;;;;;;153.68;26.95;;;;;;;7.86;61.17;100635.28;5071603;28;20072;-74
2022/11/21 04:42:30;;;;;;;229.27;28.63;;;;;;;8.21;59.59;100625.00;5071316;28;20082;-73
2022/11/21 04:44:55;;;;;;;134.93;27.35;;;;;;;8.27;60.21;100616.97;5071179;28;20172;-74
2022/11/21 04:47:21;;;;;;;138.13;28.33;;;;;;;7.87;61.23;100618.19;5055050;28;20025;-74
2022/11/21 04:49:46;;;;;;;112.05;28.27;;;;;;;8.02;61.30;100622.22;5051181;28;20062;-73
2022/11/21 04:52:11;;;;;;;132.90;28.33;;;;;;;8.38;59.93;100621.63;5051057;28;20523;-74
2022/11/21 04:54:37;;;;;;;101.90;26.95;;;;;;;8.39;60.02;100627.81;5050849;28;20123;-73
2022/11/21 04:57:02;;;;;;;103.65;26.17;;;;;;;8.58;59.66;100621.50;5050480;28;20033;-70
2022/11/21 04:59:28;;;;;;;86.03;25.92;;;;;;;8.67;58.99;100621.00;5050777;28;20025;-71
2022/11/21 05:01:53;;;;;;;75.55;29.30;;;;;;;8.75;59.23;100611.88;5057034;28;20036;-70
2022/11/21 05:04:18;;;;;;;117.57;26.90;;;;;;;8.68;58.79;100605.75;5067858;28;20555;-69
2022/11/21 05:06:44;;;;;;;69.45;27.15;;;;;;;8.57;59.59;100607.28;5065609;28;20113;-69
2022/11/21 05:09:09;;;;;;;125.97;26.25;;;;;;;8.73;58.61;100606.75;5066441;28;20068;-69
2022/11/21 05:14:18;;;;;;;125.32;25.88;;;;;;;8.30;60.48;100607.69;5069869;28;20059;-69
2022/11/21 05:16:43;;;;;;;125.53;26.05;;;;;;;8.34;59.96;100592.81;5068034;28;20032;-69
2022/11/21 05:19:09;;;;;;;109.40;24.52;;;;;;;8.43;60.06;100596.91;5068003;28;20040;-70
2022/11/21 05:21:34;;;;;;;105.55;24.88;;;;;;;8.44;60.09;100585.97;5070235;28;20055;-71
2022/11/21 05:24:00;;;;;;;98.05;25.27;;;;;;;8.54;59.77;100580.94;5069775;28;20078;-71
2022/11/21 05:26:25;;;;;;;140.50;26.60;;;;;;;8.41;60.30;100585.59;5070464;28;20389;-70
2022/11/21 05:28:50;;;;;;;98.03;23.27;;;;;;;8.71;59.51;100584.72;5070038;28;20048;-69
2022/11/21 05:31:16;;;;;;;95.03;22.27;;;;;;;8.16;61.04;100576.63;5070108;28;20078;-70
2022/11/21 05:33:41;;;;;;;101.68;20.67;;;;;;;8.50;60.14;100574.38;5069827;28;20052;-69
2022/11/21 05:36:06;;;;;;;154.35;21.08;;;;;;;8.34;60.48;100579.44;5068355;28;20056;-71
2022/11/21 05:38:32;;;;;;;95.93;20.40;;;;;;;7.97;61.45;100579.25;5069273;28;20028;-71
2022/11/21 05:40:57;;;;;;;140.13;20.55;;;;;;;7.82;61.63;100586.72;5071505;28;20067;-70
2022/11/21 05:46:07;;;;;;;168.00;21.08;;;;;;;8.09;60.93;100578.56;5071118;28;20082;-69
2022/11/21 05:48:35;;;;;;;109.65;21.23;;;;;;;7.59;62.02;100581.06;5072309;28;20642;-71
2022/11/21 05:51:00;;;;;;;99.95;19.67;;;;;;;7.81;61.98;100579.72;5072361;28;20020;-72
2022/11/21 05:53:26;;;;;;;140.23;20.88;;;;;;;8.13;61.31;100569.88;5072839;28;20028;-71
2022/11/21 05:55:51;;;;;;;136.65;21.65;;;;;;;7.98;61.53;100574.69;5072071;28;20438;-71
2022/11/21 05:58:16;;;;;;;148.48;21.05;;;;;;;8.30;60.87;100570.19;5072363;28;20040;-71
2022/11/21 06:00:42;;;;;;;174.57;22.83;;;;;;;7.81;61.41;100566.38;5072018;28;20082;-70
2022/11/21 06:03:29;;;;;;;123.45;22.20;;;;;;;8.17;61.07;100563.06;5071898;28;20491;-71
2022/11/21 06:05:59;;;;;;;112.40;19.50;;;;;;;8.25;60.75;100557.47;5063069;28;20025;-71
2022/11/21 06:08:29;;;;;;;126.10;20.13;;;;;;;8.07;61.30;100568.06;5072442;28;20046;-71
2022/11/21 06:10:54;;;;;;;122.82;21.20;;;;;;;8.18;60.83;100570.03;5070330;28;20029;-71
2022/11/21 06:13:23;;;;;;;143.57;21.08;;;;;;;8.02;61.30;100573.22;5071333;28;20439;-71
2022/11/21 06:15:50;;;;;;;114.30;21.33;;;;;;;7.92;61.49;100579.06;5072114;28;20036;-71
2022/11/21 06:18:16;;;;;;;106.15;21.73;;;;;;;8.09;61.20;100579.38;5073177;28;20086;-71
2022/11/21 06:20:41;;;;;;;67.55;19.80;;;;;;;8.03;61.19;100580.22;5072208;28;20032;-72
2022/11/21 06:23:07;;;;;;;139.65;19.58;;;;;;;8.33;60.73;100580.50;5073005;28;20028;-72
2022/11/21 06:25:32;;;;;;;93.50;19.90;;;;;;;8.22;60.69;100576.59;5072893;28;20063;-71
2022/11/21 06:28:01;;;;;;;117.22;20.67;;;;;;;8.27;60.06;100576.81;5073130;28;20048;-73
2022/11/21 06:30:26;;;;;;;118.40;19.98;;;;;;;8.14;60.77;100576.06;5072724;28;20051;-72
2022/11/21 06:32:52;;;;;;;126.10;18.00;;;;;;;8.27;60.85;100566.13;5072290;28;20077;-72
2022/11/21 06:35:17;;;;;;;110.85;19.23;;;;;;;8.30;60.44;100562.16;5072874;28;20137;-73
2022/11/21 06:37:42;;;;;;;82.13;18.00;;;;;;;8.00;61.61;100564.59;5072558;28;20036;-71
2022/11/21 06:40:08;;;;;;;116.25;19.85;;;;;;;8.20;60.68;100561.78;5072783;28;20067;-72
2022/11/21 06:42:34;;;;;;;96.88;20.40;;;;;;;8.26;60.99;100563.63;5071441;28;20127;-71
2022/11/21 06:44:59;;;;;;;81.38;21.50;;;;;;;8.44;59.90;100558.34;5072620;28;20436;-72
2022/11/21 06:47:25;;;;;;;124.78;22.33;;;;;;;8.30;60.06;100560.31;5072995;28;20515;-70
2022/11/21 06:49:50;;;;;;;106.53;18.85;;;;;;;8.09;60.77;100567.84;5072112;28;20040;-70
2022/11/21 06:52:15;;;;;;;108.45;21.38;;;;;;;7.96;61.23;100558.03;5072055;28;20037;-71
2022/11/21 06:54:41;;;;;;;75.70;17.85;;;;;;;8.13;61.00;100559.19;5071970;28;20060;-71
2022/11/21 06:57:06;;;;;;;127.05;20.58;;;;;;;8.16;60.28;100552.56;5072446;28;20149;-70
2022/11/21 06:59:32;;;;;;;87.75;19.45;;;;;;;7.74;61.99;100551.38;5072982;28;20361;-70
2022/11/21 07:01:57;;;;;;;127.40;20.80;;;;;;;8.11;60.96;100549.72;5060657;28;20107;-71
2022/11/21 07:04:22;;;;;;;116.15;21.38;;;;;;;8.17;60.92;100546.19;5068319;28;20166;-71
2022/11/21 07:06:48;;;;;;;107.15;20.95;;;;;;;7.94;61.73;100560.94;5072205;28;20112;-71
2022/11/21 07:09:13;;;;;;;87.35;19.70;;;;;;;8.33;60.51;100538.47;5071953;28;20366;-73
2022/11/21 07:11:38;;;;;;;99.10;19.95;;;;;;;7.92;61.29;100552.28;5072832;28;20435;-72
2022/11/21 07:14:04;;;;;;;94.50;20.05;;;;;;;8.17;61.07;100541.66;5072899;28;20263;-73
2022/11/21 07:16:31;;;;;;;103.28;20.70;;;;;;;7.93;61.40;100539.75;5072511;28;20479;-74
2022/11/21 07:18:56;;;;;;;107.57;19.77;;;;;;;8.30;60.65;100538.06;5072338;28;20135;-73
2022/11/21 07:21:22;;;;;;;106.82;19.27;;;;;;;7.87;61.51;100549.47;5061804;28;20127;-72
2022/11/21 07:23:47;;;;;;;108.97;19.23;;;;;;;7.64;62.88;100553.69;5071885;28;20066;-72
2022/11/21 07:26:13;;;;;;;110.03;18.65;;;;;;;7.82;62.55;100549.25;5067742;28;20063;-73
2022/11/21 07:28:39;;;;;;;105.78;17.88;;;;;;;7.47;63.34;100547.19;5069411;28;20035;-73
2022/11/21 07:31:04;;;;;;;100.18;19.60;;;;;;;7.25;64.03;100554.69;5071324;28;20132;-73
2022/11/21 07:33:30;;;;;;;80.35;17.95;;;;;;;7.83;62.10;100550.91;5071247;28;20512;-72
2022/11/21 07:35:56;;;;;;;88.60;16.80;;;;;;;7.79;62.30;100544.34;5063640;28;20059;-72
2022/11/21 07:38:22;;;;;;;138.68;18.77;;;;;;;7.77;62.39;100542.91;5070510;28;20036;-73
2022/11/21 07:40:48;;;;;;;74.28;15.30;;;;;;;7.79;62.11;100533.66;5070502;28;20488;-73
2022/11/21 07:43:13;;;;;;;63.53;17.48;;;;;;;7.96;61.82;100529.44;5070956;28;20033;-72
2022/11/21 07:45:38;;;;;;;83.60;17.80;;;;;;;7.44;64.08;100537.75;5070966;28;20064;-72
2022/11/21 07:48:06;;;;;;;99.22;19.35;;;;;;;7.89;62.29;100542.03;5070999;28;20434;-73
2022/11/21 07:50:32;;;;;;;60.55;18.83;;;;;;;8.09;61.97;100546.44;5071851;28;20020;-73
2022/11/21 07:53:06;;;;;;;80.60;17.67;;;;;;;8.08;61.42;100547.50;5069618;28;20047;-72
2022/11/21 07:55:33;;;;;;;71.10;16.30;;;;;;;7.35;63.56;100548.88;5070868;28;20400;-73
2022/11/21 07:58:06;;;;;;;94.72;17.90;;;;;;;7.57;63.27;100543.03;5070773;28;20082;-72
2022/11/21 08:00:34;;;;;;;59.13;17.40;;;;;;;7.98;62.84;100540.72;5070072;28;20037;-72
2022/11/21 08:03:00;;;;;;;105.13;18.38;;;;;;;7.43;63.98;100538.75;5060958;28;20064;-71
2022/11/21 08:05:25;;;;;;;66.70;17.27;;;;;;;7.74;63.21;100536.13;5069640;28;20063;-73
2022/11/21 08:07:50;;;;;;;75.70;18.35;;;;;;;7.55;63.73;100533.56;5069497;28;20565;-72
2022/11/21 08:10:16;;;;;;;59.30;17.83;;;;;;;8.05;61.80;100535.34;5069544;28;20028;-74
2022/11/21 08:12:45;;;;;;;40.60;17.67;;;;;;;7.81;63.42;100530.75;5069433;28;20055;-73
2022/11/21 08:15:11;;;;;;;104.32;19.58;;;;;;;8.19;62.14;100512.00;5064380;28;20051;-73
2022/11/21 08:17:37;;;;;;;55.17;18.67;;;;;;;8.19;62.32;100512.81;5060116;28;20092;-72
2022/11/21 08:20:04;;;;;;;66.45;20.45;;;;;;;8.42;60.58;100499.69;5069294;28;20040;-74
2022/11/21 08:22:30;;;;;;;50.58;18.67;;;;;;;8.27;61.88;100487.66;5067119;28;20044;-73
2022/11/21 08:24:55;;;;;;;65.40;19.50;;;;;;;8.39;61.11;100488.59;5070325;28;20157;-71
2022/11/21 08:27:23;;;;;;;57.63;17.70;;;;;;;8.40;61.20;100499.06;5067857;28;20121;-71
2022/11/21 08:29:48;;;;;;;45.92;18.45;;;;;;;8.71;60.89;100503.53;5070492;28;20033;-72
2022/11/21 08:32:14;;;;;;;59.92;18.33;;;;;;;8.82;60.11;100494.78;5070876;28;20096;-71
2022/11/21 08:34:39;;;;;;;48.22;16.92;;;;;;;8.49;60.90;100492.38;5070715;28;20064;-71
2022/11/21 08:37:04;;;;;;;50.58;17.35;;;;;;;8.24;62.40;100501.44;5069362;28;20587;-72
2022/11/21 08:39:30;;;;;;;42.78;18.65;;;;;;;8.24;62.22;100502.25;5070421;28;20112;-71
2022/11/21 08:42:02;;;;;;;42.13;17.25;;;;;;;8.48;61.37;100506.84;5070422;28;20021;-72
2022/11/21 08:44:32;;;;;;;44.75;19.40;;;;;;;8.92;59.94;100499.59;5070507;28;20048;-71
2022/11/21 08:46:58;;;;;;;51.13;18.13;;;;;;;8.52;60.86;100493.81;5070450;28;20086;-71
2022/11/21 08:49:24;;;;;;;41.95;18.20;;;;;;;8.97;60.10;100491.72;5070380;28;21075;-70
2022/11/21 08:51:49;;;;;;;53.20;18.92;;;;;;;8.57;60.55;100492.13;5070208;28;20182;-71
2022/11/21 08:54:16;;;;;;;60.42;18.88;;;;;;;8.68;60.59;100474.50;5070368;28;20408;-71
2022/11/21 08:56:42;;;;;;;62.97;17.75;;;;;;;8.62;60.26;100470.88;5068838;28;20048;-72
2022/11/21 08:59:07;;;;;;;42.33;17.55;;;;;;;8.62;60.40;100462.00;5070437;28;20045;-71
2022/11/21 09:01:33;;;;;;;44.67;18.33;;;;;;;8.85;60.87;100468.34;5069188;28;20086;-71
2022/11/21 09:03:58;;;;;;;44.92;18.45;;;;;;;8.82;59.91;100466.09;5070036;28;20086;-71
2022/11/21 09:06:23;;;;;;;57.05;21.23;;;;;;;8.58;60.37;100461.63;5067819;28;20068;-73
2022/11/21 09:08:49;;;;;;;49.67;20.42;;;;;;;8.67;60.71;100460.28;5070023;28;20068;-71
2022/11/21 09:11:14;;;;;;;48.03;19.08;;;;;;;8.76;60.91;100463.50;5070219;28;20107;-71
2022/11/21 09:13:40;;;;;;;42.72;20.70;;;;;;;8.65;60.69;100462.38;5070006;28;20415;-72
2022/11/21 09:18:52;;;;;;;39.85;19.80;;;;;;;8.63;61.75;100450.22;5054354;28;20082;-72
2022/11/21 09:21:18;;;;;;;34.65;19.60;;;;;;;8.07;63.69;100441.47;5054325;28;20033;-70
2022/11/21 09:23:44;;;;;;;44.17;22.45;;;;;;;8.72;61.73;100433.69;5061258;28;20111;-70
2022/11/21 09:26:10;;;;;;;38.10;20.40;;;;;;;8.58;61.26;100434.84;5074036;28;20029;-71
2022/11/21 09:28:36;;;;;;;40.42;20.48;;;;;;;8.56;62.04;100420.03;5073702;28;20511;-72
2022/11/21 09:31:02;;;;;;;36.83;20.38;;;;;;;8.89;61.09;100425.84;5073921;28;20697;-71
2022/11/21 09:33:28;;;;;;;44.30;22.33;;;;;;;8.82;60.99;100428.59;5073840;28;20067;-70
2022/11/21 09:35:56;;;;;;;40.50;22.42;;;;;;;8.69;61.39;100431.41;5073701;28;20037;-69
2022/11/21 09:38:21;;;;;;;37.10;21.20;;;;;;;8.84;61.26;100434.53;5074025;28;20029;-70
2022/11/21 09:40:47;;;;;;;40.88;21.77;;;;;;;8.61;60.93;100430.88;5073753;28;20500;-70
2022/11/21 09:43:46;;;;;;;40.65;21.48;;;;;;;8.96;61.40;100437.31;5073492;28;20078;-70
2022/11/21 09:46:17;;;;;;;50.03;22.10;;;;;;;9.05;60.73;100432.44;5073417;28;20055;-69
2022/11/21 09:48:57;;;;;;;43.33;22.60;;;;;;;8.97;61.53;100425.53;5073383;28;20170;-69
2022/11/21 09:51:24;;;;;;;38.63;22.17;;;;;;;9.18;59.80;100416.22;5073683;28;20028;-70
2022/11/21 09:53:59;;;;;;;38.03;21.67;;;;;;;9.07;60.80;100414.28;5073479;28;20038;-71
2022/11/21 09:56:27;;;;;;;43.35;22.30;;;;;;;9.26;60.35;100405.97;5073441;28;20021;-70
2022/11/21 09:59:06;;;;;;;39.70;23.10;;;;;;;9.20;60.34;100406.88;5070842;28;20415;-69
2022/11/21 10:01:32;;;;;;;36.25;21.40;;;;;;;9.42;60.44;100399.16;5062273;28;20569;-69
2022/11/21 10:04:01;;;;;;;44.30;22.90;;;;;;;8.88;61.09;100395.53;5053357;28;20037;-70
2022/11/21 10:06:59;;;;;;;43.67;22.60;;;;;;;9.30;60.35;100391.06;5067693;28;20075;-69
2022/11/21 10:09:30;;;;;;;44.80;22.13;;;;;;;8.87;61.49;100393.09;5030494;28;20565;-70
2022/11/21 10:15:24;;;;;;;44.88;22.85;;;;;;;9.52;60.24;100373.44;5050795;28;20135;-70
2022/11/21 10:18:10;;;;;;;39.78;20.98;;;;;;;9.14;61.49;100369.47;5050259;28;20037;-70
2022/11/21 10:20:54;;;;;;;36.85;21.80;;;;;;;9.00;61.40;100366.16;5050849;28;20140;-70
2022/11/21 10:23:31;;;;;;;37.97;22.45;;;;;;;8.89;62.65;100358.84;5050329;28;20053;-70
2022/11/21 10:26:04;;;;;;;39.92;22.05;;;;;;;8.90;62.73;100357.81;5049129;28;20037;-70
2022/11/21 10:28:49;;;;;;;43.00;23.48;;;;;;;9.31;61.36;100349.84;5050068;28;20524;-68
2022/11/21 10:31:16;;;;;;;40.17;22.17;;;;;;;8.82;62.71;100336.69;5050116;28;20512;-71
2022/11/21 10:33:41;;;;;;;37.75;20.40;;;;;;;8.78;63.56;100335.50;5049404;28;20041;-69
2022/11/21 10:36:25;;;;;;;38.53;22.63;;;;;;;9.39;62.13;100322.69;5050024;28;20615;-69
2022/11/21 10:38:57;;;;;;;37.83;21.50;;;;;;;9.80;60.77;100326.34;5049527;28;20045;-69
2022/11/21 10:41:35;;;;;;;38.63;20.40;;;;;;;9.43;61.52;100329.22;5050277;28;20095;-68
2022/11/21 10:46:56;;;;;;;30.60;20.38;;;;;;;10.20;59.75;100317.38;5051821;28;20048;-69
2022/11/21 10:49:22;;;;;;;37.63;19.92;;;;;;;10.26;59.81;100312.97;5052489;28;20405;-69
2022/11/21 10:52:06;;;;;;;34.63;19.65;;;;;;;10.03;60.59;100304.88;5052436;28;20052;-69
2022/11/21 10:54:31;;;;;;;34.25;19.73;;;;;;;10.63;59.46;100306.22;5052419;28;20135;-70
2022/11/21 10:57:12;;;;;;;36.97;19.83;;;;;;;9.85;61.12;100302.34;5051883;28;20573;-70
2022/11/21 10:59:38;;;;;;;35.40;20.33;;;;;;;10.19;61.13;100294.28;5052595;28;20029;-71
2022/11/21 11:02:12;;;;;;;39.28;20.13;;;;;;;10.54;59.89;100288.81;5064833;28;20075;-70
2022/11/21 11:04:38;;;;;;;34.42;21.15;;;;;;;9.77;62.12;100274.78;5072162;28;20063;-70
2022/11/21 11:07:22;;;;;;;35.75;19.73;;;;;;;9.92;61.60;100266.28;5072211;28;20094;-72
2022/11/21 11:09:47;;;;;;;37.78;19.38;;;;;;;9.77;61.95;100266.72;5071959;28;20048;-71
2022/11/21 11:15:30;;;;;;;33.45;20.20;;;;;;;10.28;60.81;100282.09;5068482;28;20085;-70
2022/11/21 11:18:00;;;;;;;35.53;19.73;;;;;;;10.65;60.10;100277.22;5070160;28;20053;-69
2022/11/21 11:20:36;;;;;;;32.88;19.73;;;;;;;10.93;59.47;100263.78;5072112;28;20037;-71
2022/11/21 11:23:34;;;;;;;33.45;19.58;;;;;;;10.72;60.16;100275.22;5068348;28;20051;-67
2022/11/21 11:25:59;;;;;;;31.33;18.52;;;;;;;10.87;59.62;100277.38;5042642;28;20585;-68
2022/11/21 11:28:32;;;;;;;34.15;19.08;;;;;;;10.98;60.14;100277.31;5038690;28;20036;-70
2022/11/21 11:30:57;;;;;;;36.53;20.02;;;;;;;11.31;59.38;100269.28;5038674;28;20049;-68
2022/11/21 11:33:33;;;;;;;34.88;18.55;;;;;;;11.01;60.76;100257.19;5040353;28;20087;-69
2022/11/21 11:36:29;;;;;;;36.70;19.58;;;;;;;11.35;59.98;100258.84;5037354;28;20041;-68